createdAt,value
2019-01-22T00:01:04.539Z,4.37
2019-01-22T00:06:10.951Z,4.92
2019-01-22T00:11:17.769Z,5.75
2019-01-22T00:16:24.781Z,6.40
2019-01-22T00:21:31.102Z,5.15
2019-01-22T00:26:37.471Z,5.60
2019-01-22T00:31:44.202Z,5.25
2019-01-22T00:36:51.130Z,5.22
2019-01-22T00:41:57.050Z,5.22
2019-01-22T00:47:03.212Z,6.78
2019-01-22T00:52:10.200Z,5.22
2019-01-22T00:57:16.259Z,5.10
2019-01-22T01:02:23.422Z,4.47
2019-01-22T01:07:29.830Z,4.85
2019-01-22T01:12:36.470Z,4.30
2019-01-22T01:17:43.201Z,6.22
2019-01-22T01:22:49.759Z,5.15
2019-01-22T01:27:55.942Z,4.17
2019-01-22T01:33:02.019Z,4.35
2019-01-22T01:38:08.439Z,4.35
2019-01-22T01:43:15.110Z,4.37
2019-01-22T01:48:21.372Z,5.92
2019-01-22T01:53:27.350Z,4.15
2019-01-22T01:58:34.170Z,4.83
2019-01-22T02:03:40.582Z,5.03
2019-01-22T02:08:46.885Z,4.30
2019-01-22T02:13:59.350Z,4.83
2019-01-22T02:19:27.520Z,3.83
2019-01-22T02:24:48.702Z,4.30
2019-01-22T02:30:43.950Z,4.20
2019-01-22T02:36:12.222Z,3.87
2019-01-22T02:41:25.950Z,4.60
2019-01-22T02:46:44.330Z,5.05
2019-01-22T02:52:30.150Z,3.80
2019-01-22T02:58:25.830Z,4.10
2019-01-22T03:04:09.309Z,3.87
2019-01-22T03:09:57.019Z,3.40
2019-01-22T03:15:38.383Z,4.12
2019-01-22T03:21:21.880Z,4.80
2019-01-22T03:27:03.191Z,3.67
2019-01-22T03:32:23.410Z,3.72
2019-01-22T03:37:55.843Z,3.77
2019-01-22T03:43:25.010Z,4.08
2019-01-22T03:49:00.941Z,3.80
2019-01-22T03:55:11.839Z,4.10
2019-01-22T04:00:41.619Z,3.95
2019-01-22T04:05:50.599Z,3.75
2019-01-22T04:11:07.770Z,3.42
2019-01-22T04:16:14.881Z,3.40
2019-01-22T04:21:22.761Z,3.92
2019-01-22T04:26:54.701Z,3.42
2019-01-22T04:32:12.160Z,3.92
2019-01-22T04:37:32.122Z,3.67
2019-01-22T04:42:51.930Z,4.03
2019-01-22T04:48:11.681Z,3.58
2019-01-22T04:54:00.274Z,3.72
2019-01-22T04:59:44.709Z,3.50
2019-01-22T05:05:01.610Z,3.67
2019-01-22T05:10:32.382Z,3.65
2019-01-22T05:16:16.423Z,3.62
2019-01-22T05:21:44.750Z,3.42
2019-01-22T05:27:28.989Z,3.90
2019-01-22T05:32:43.819Z,3.50
2019-01-22T05:38:28.405Z,3.58
2019-01-22T05:43:54.541Z,3.67
2019-01-22T05:49:32.821Z,4.12
2019-01-22T05:54:56.140Z,3.40
2019-01-22T06:00:37.492Z,3.80
2019-01-22T06:06:14.332Z,3.58
2019-01-22T06:11:50.282Z,3.00
2019-01-22T06:18:01.469Z,4.47
2019-01-22T06:23:46.690Z,3.55
2019-01-22T06:29:22.541Z,4.15
2019-01-22T06:34:54.830Z,3.52
2019-01-22T06:40:20.130Z,3.22
2019-01-22T06:46:21.549Z,3.17
2019-01-22T06:52:16.541Z,4.10
2019-01-22T06:57:57.671Z,3.10
2019-01-22T07:03:40.189Z,3.22
2019-01-22T07:09:32.629Z,3.37
2019-01-22T07:14:58.340Z,4.80
2019-01-22T07:20:42.559Z,5.28
2019-01-22T07:26:29.450Z,5.53
2019-01-22T07:32:00.231Z,4.17
2019-01-22T07:37:45.299Z,4.25
2019-01-22T07:43:11.958Z,9.40
2019-01-22T07:48:36.813Z,11.48
2019-01-22T07:54:25.449Z,4.90
2019-01-22T07:59:50.531Z,13.78
2019-01-22T08:05:10.100Z,5.83
2019-01-22T08:11:05.230Z,7.92
2019-01-22T08:16:51.561Z,6.62
2019-01-22T08:22:28.949Z,7.53
2019-01-22T08:28:05.870Z,4.75
2019-01-22T08:33:46.641Z,5.30
2019-01-22T08:39:28.919Z,6.40
2019-01-22T08:45:02.301Z,5.95
2019-01-22T08:50:42.049Z,10.13
2019-01-22T08:56:05.991Z,10.05
2019-01-22T09:01:35.538Z,6.55
2019-01-22T09:07:03.009Z,4.22
2019-01-22T09:12:40.532Z,6.65
2019-01-22T09:18:29.662Z,4.45
2019-01-22T09:24:22.237Z,25.40
2019-01-22T09:29:56.591Z,23.40
2019-01-22T09:35:35.519Z,14.33
2019-01-22T09:40:41.501Z,20.43
2019-01-22T09:45:47.809Z,19.98
2019-01-22T09:50:53.684Z,24.57
2019-01-22T09:56:00.864Z,17.17
2019-01-22T10:01:07.590Z,13.08
2019-01-22T10:06:13.805Z,11.22
2019-01-22T10:11:19.480Z,10.08
2019-01-22T10:16:25.830Z,9.48
2019-01-22T10:21:32.201Z,9.18
2019-01-22T10:26:38.659Z,11.08
2019-01-22T10:31:44.890Z,8.43
2019-01-22T10:36:51.461Z,11.65
2019-01-22T10:41:58.189Z,15.70
2019-01-22T10:47:04.712Z,10.72
2019-01-22T10:52:11.289Z,9.88
2019-01-22T10:57:17.842Z,18.27
2019-01-22T11:02:23.889Z,13.03
2019-01-22T11:07:29.841Z,18.55
2019-01-22T11:12:36.131Z,18.50
2019-01-22T11:17:50.191Z,14.87
2019-01-22T11:23:14.401Z,13.83
2019-01-22T11:28:47.591Z,10.15
2019-01-22T11:34:30.789Z,13.25
2019-01-22T11:39:54.759Z,15.80
2019-01-22T11:45:18.270Z,18.15
2019-01-22T11:50:32.638Z,13.83
2019-01-22T11:55:50.459Z,14.93
2019-01-22T12:00:47.131Z,16.60
2019-01-22T12:05:53.561Z,11.93
2019-01-22T12:10:59.659Z,12.68
2019-01-22T12:16:23.802Z,16.17
2019-01-22T12:21:29.402Z,12.80
2019-01-22T12:26:35.745Z,11.85
2019-01-22T12:31:41.449Z,10.38
2019-01-22T12:36:46.998Z,9.20
2019-01-22T12:41:54.029Z,10.05
2019-01-22T12:47:00.887Z,10.45
2019-01-22T12:52:06.770Z,11.93
2019-01-22T12:57:13.650Z,9.60
2019-01-22T13:02:20.366Z,8.90
2019-01-22T13:07:27.141Z,9.00
2019-01-22T13:12:33.572Z,10.48
2019-01-22T13:17:40.064Z,6.50
2019-01-22T13:22:46.423Z,9.20
2019-01-22T13:27:52.150Z,9.43
2019-01-22T13:32:57.991Z,7.97
2019-01-22T13:38:04.029Z,5.20
2019-01-22T13:43:09.728Z,9.30
2019-01-22T13:48:18.639Z,8.20
2019-01-22T13:53:24.339Z,8.05
2019-01-22T13:58:30.902Z,8.35
2019-01-22T14:03:36.621Z,10.08
2019-01-22T14:08:43.340Z,11.48
2019-01-22T14:13:50.820Z,10.78
2019-01-22T14:18:57.242Z,9.38
2019-01-22T14:24:02.979Z,9.43
2019-01-22T14:29:09.398Z,6.10
2019-01-22T14:34:15.809Z,7.95
2019-01-22T14:39:26.649Z,8.15
2019-01-22T14:44:29.921Z,8.43
2019-01-22T14:49:36.342Z,13.93
2019-01-22T14:54:42.201Z,6.08
2019-01-22T14:59:48.659Z,6.33
2019-01-22T15:04:55.342Z,9.20
2019-01-22T15:10:00.993Z,11.30
2019-01-22T15:15:07.900Z,11.22
2019-01-22T15:20:17.829Z,12.80
2019-01-22T15:25:24.225Z,9.00
2019-01-22T15:30:37.913Z,9.43
2019-01-22T15:35:43.593Z,10.03
2019-01-22T15:40:49.169Z,20.00
2019-01-22T15:45:54.909Z,18.50
2019-01-22T15:51:00.692Z,11.12
2019-01-22T15:56:06.569Z,17.55
2019-01-22T16:01:12.390Z,7.65
2019-01-22T16:06:18.202Z,9.85
2019-01-22T16:11:24.190Z,8.58
2019-01-22T16:16:29.968Z,7.30
2019-01-22T16:21:35.889Z,13.58
2019-01-22T16:26:41.689Z,8.53
2019-01-22T16:31:47.468Z,8.03
2019-01-22T16:36:53.201Z,9.60
2019-01-22T16:41:59.170Z,10.85
2019-01-22T16:47:04.930Z,6.22
2019-01-22T16:52:10.916Z,6.97
2019-01-22T16:57:16.760Z,9.83
2019-01-22T17:02:22.592Z,8.58
2019-01-22T17:07:28.162Z,7.65
2019-01-22T17:12:34.379Z,7.37
2019-01-22T17:17:40.379Z,4.72
2019-01-22T17:22:46.270Z,6.12
2019-01-22T17:27:52.060Z,4.87
2019-01-22T17:33:16.640Z,4.80
2019-01-22T17:38:23.459Z,6.53
2019-01-22T17:43:29.089Z,6.62
2019-01-22T17:48:34.610Z,6.08
2019-01-22T17:53:40.501Z,12.15
2019-01-22T17:58:46.301Z,5.00
2019-01-22T18:03:52.210Z,6.12
2019-01-22T18:08:57.998Z,7.25
2019-01-22T18:14:03.929Z,8.80
2019-01-22T18:19:09.961Z,8.58
2019-01-22T18:24:15.908Z,7.62
2019-01-22T18:29:21.701Z,5.80
2019-01-22T18:34:27.731Z,5.20
2019-01-22T18:39:33.690Z,5.60
2019-01-22T18:44:39.850Z,5.95
2019-01-22T18:49:46.113Z,7.15
2019-01-22T18:54:51.581Z,7.67
2019-01-22T19:00:04.597Z,5.92
2019-01-22T19:05:10.863Z,16.57
2019-01-22T19:10:19.550Z,8.03
2019-01-22T19:15:25.790Z,6.37
2019-01-22T19:20:31.652Z,5.37
2019-01-22T19:25:37.997Z,10.20
2019-01-22T19:30:44.082Z,5.45
2019-01-22T19:35:50.910Z,7.60
2019-01-22T19:40:57.490Z,7.28
2019-01-22T19:46:03.701Z,7.33
2019-01-22T19:51:09.651Z,5.70
2019-01-22T19:56:15.194Z,5.75
2019-01-22T20:01:21.202Z,7.87
2019-01-22T20:06:27.189Z,6.35
2019-01-22T20:11:32.811Z,6.78
2019-01-22T20:16:43.001Z,8.13
2019-01-22T20:21:49.190Z,7.50
2019-01-22T20:26:55.238Z,5.00
2019-01-22T20:32:01.401Z,4.78
2019-01-22T20:37:10.628Z,7.00
2019-01-22T20:42:17.130Z,5.25
2019-01-22T20:47:25.414Z,5.65
2019-01-22T20:52:32.442Z,5.15
2019-01-22T20:57:41.459Z,4.22
2019-01-22T21:02:47.515Z,6.90
2019-01-22T21:07:55.568Z,4.87
2019-01-22T21:13:01.986Z,6.17
2019-01-22T21:18:07.998Z,5.17
2019-01-22T21:23:15.228Z,5.87
2019-01-22T21:28:24.349Z,4.67
2019-01-22T21:33:30.676Z,5.40
2019-01-22T21:38:37.297Z,5.85
2019-01-22T21:43:45.158Z,5.08
2019-01-22T21:48:50.885Z,5.35
2019-01-22T21:53:56.868Z,9.10
2019-01-22T21:59:02.558Z,4.15
2019-01-22T22:04:09.238Z,6.37
2019-01-22T22:09:17.818Z,4.67
2019-01-22T22:14:24.196Z,5.50
2019-01-22T22:19:30.600Z,6.95
2019-01-22T22:24:36.698Z,4.97
2019-01-22T22:29:42.298Z,5.60
2019-01-22T22:34:48.408Z,7.33
2019-01-22T22:39:54.638Z,4.75
2019-01-22T22:45:00.417Z,7.58
2019-01-22T22:50:06.797Z,4.55
2019-01-22T22:55:12.842Z,3.85
2019-01-22T23:00:32.658Z,4.53
2019-01-22T23:05:38.908Z,4.05
2019-01-22T23:10:44.783Z,6.05
2019-01-22T23:15:50.940Z,3.72
2019-01-22T23:20:56.761Z,5.72
2019-01-22T23:26:02.700Z,5.50
2019-01-22T23:31:08.482Z,4.45
2019-01-22T23:36:14.780Z,4.85
2019-01-22T23:41:20.639Z,4.17
2019-01-22T23:46:27.431Z,5.20
2019-01-22T23:51:33.212Z,5.47
2019-01-22T23:56:39.109Z,4.30
